Архив погоды в Красноозерске

Метеограмма Красноозерск
Среда, 25 Июля
Время местн. Темп Ветер Видим Явления Облачность нижн/средн/верх Атм. давл. Влжн Точка росы ВНГО R Сост. почвы Tg s
Напр Скр Прв ур.ст ур.м изм
15:00 +23.1° С 5 - 50 км - переменная облачность 746 760 +0.8 43% +10° 2 км - - - -
12:00 +20.8° С 5 - 50 км - облачно с прояснениями 745 759 +0.6 61% +13° более 2.5 км - - - -
09:00 +15.8° С-З 3 - 50 км - облачно 745 758 +0.8 84% +13.1° 1 км - - - -
06:00 +13.2° С-З 1 - 20 км туман облачно 744 758 +0.8 94% +12.3° 600 м 0 Сухая (без трещин) - -
03:00 +12.7° С,С-З 2 - 50 км - облачно 743 757 +0.2 94% +11.7° - - - - -
00:00 +12.7° С 2 - 50 км - переменная облачность 743 757 +0.8 89% +11° - - - - -
Вторник, 24 Июля
Время местн. Темп Ветер Видим Явления Облачность нижн/средн/верх Атм. давл. Влжн Точка росы ВНГО R Сост. почвы Tg s
Напр Скр Прв ур.ст ур.м изм
21:00 +16° С-З 1 - более 50 км - облачно 742 756 +1.1 75% +11.6° 1 км - - - -
18:00 +18.1° штиль 0 - 50 км небо без изменений {ливневые осадки} облачно 741 755 +0.8 56% +9.1° 1 км 0 - - -
15:00 +18.5° В 1 - более 50 км небо без изменений {ливневые осадки} облачно с прояснениями 740 754 +1.1 51% +8.2° 1 км - - - -
12:00 +15.5° З 1 - 50 км - облачно 739 753 +1.7 68% +9.7° 1 км - - - -
09:00 +13.5° Ю 3 - 50 км - облачно 738 751 +1 87% +11.4° 1 км - - - -
06:00 +11.3° Ю 3 - 10 км - преимущественно облачно 737 750 +1.2 93% +10.2° 600 м 3 Влажная (без луж) - -
03:00 +11.1° Ю 1 - 50 км - облачно с прояснениями 736 749 +0.7 91% +9.7° - - - - -
00:00 +12° Ю-З 3 - 50 км небо без изменений {ливневые осадки} облачно 735 748 +0.4 92% +10.7° 1 км - - - -
Понедельник, 23 Июля
Время местн. Темп Ветер Видим Явления Облачность нижн/средн/верх Атм. давл. Влжн Точка росы ВНГО R Сост. почвы Tg s
Напр Скр Прв ур.ст ур.м изм
21:00 +12.5° С-З 3 - 10 км слабый ливневый дождь облачно 735 748 -1.1 91% +11° 1 км - - - -
18:00 +13.5° С,С-З 2 - 10 км слабый ливневый дождь облачно 736 749 -0.6 88% +11.6° 1 км 4 - - -
15:00 +13.3° С 3 - 10 км слабый ливневый дождь облачно 736 750 -0.3 87% +11.2° 1 км - - - -
12:00 +13.4° С,С-В 1 - 50 км слабый ливневый дождь облачно 736 750 -0.2 85% +10.9° 1 км - - - -
09:00 +12.9° З,С-З 1 - 4 км слабый ливневый дождь облачно 737 750 -0.7 89% +11.1° 1 км - - - -
06:00 +12.1° С-З 1 - 4 км дымка облачно 737 751 -1.1 92% +10.8° 600 м 0 Влажная (без луж) - -
03:00 +11.8° С 2 - 50 км - облачно 738 752 -1.1 92% +10.5° 1 км - - - -
00:00 +12.5° С 2 - 50 км - переменная облачность 740 753 -0.5 89% +10.8° более 2.5 км - - - -
Воскресенье, 22 Июля
Время местн. Темп Ветер Видим Явления Облачность нижн/средн/верх Атм. давл. Влжн Точка росы ВНГО R Сост. почвы Tg s
Напр Скр Прв ур.ст ур.м изм
21:00 +14.8° С 4 - более 50 км - облачно 740 754 -0.9 81% +11.6° 1 км - - - -
18:00 +15.5° С 3 - 50 км небо без изменений {ливневые осадки} облачно 741 755 -0.1 78% +11.7° 600 м 2 - - -
15:00 +16° С,С-В 3 - более 50 км небо без изменений {ливневые осадки} облачно 741 755 -0.6 72% +11° 600 м - - - -
12:00 +12.5° С 3 - 10 км слабый ливневый дождь облачно 742 755 -0.1 86% +10.2° 600 м - - - -